sensor_id;sensor_type;location;lat;lon;timestamp;P1;durP1;ratioP1;P2;durP2;ratioP2
15094;SDS011;7648;52.264;9.632;2022-09-30T03:51:48;5.73;;;5.23;;
15094;SDS011;7648;52.264;9.632;2022-09-30T03:55:50;4.80;;;4.50;;
15094;SDS011;7648;52.264;9.632;2022-09-30T03:59:53;4.83;;;4.53;;
15094;SDS011;7648;52.264;9.632;2022-09-30T04:03:55;5.07;;;4.67;;
15094;SDS011;7648;52.264;9.632;2022-09-30T04:07:58;4.27;;;4.00;;
15094;SDS011;7648;52.264;9.632;2022-09-30T04:12:00;4.70;;;4.40;;
15094;SDS011;7648;52.264;9.632;2022-09-30T04:16:02;4.47;;;4.17;;
15094;SDS011;7648;52.264;9.632;2022-09-30T04:20:05;4.90;;;4.60;;
15094;SDS011;7648;52.264;9.632;2022-09-30T04:24:08;5.83;;;5.33;;
15094;SDS011;7648;52.264;9.632;2022-09-30T04:28:10;4.70;;;4.40;;
15094;SDS011;7648;52.264;9.632;2022-09-30T04:32:12;4.73;;;4.33;;
15094;SDS011;7648;52.264;9.632;2022-09-30T04:36:16;4.47;;;4.17;;
15094;SDS011;7648;52.264;9.632;2022-09-30T04:40:20;5.90;;;5.50;;
15094;SDS011;7648;52.264;9.632;2022-09-30T04:44:22;5.07;;;4.77;;
15094;SDS011;7648;52.264;9.632;2022-09-30T04:48:24;5.67;;;5.17;;
15094;SDS011;7648;52.264;9.632;2022-09-30T04:52:27;5.87;;;5.33;;
15094;SDS011;7648;52.264;9.632;2022-09-30T04:56:30;6.33;;;5.00;;
15094;SDS011;7648;52.264;9.632;2022-09-30T05:00:32;4.80;;;4.50;;
15094;SDS011;7648;52.264;9.632;2022-09-30T05:04:34;7.27;;;6.50;;
15094;SDS011;7648;52.264;9.632;2022-09-30T05:08:37;5.63;;;5.23;;
15094;SDS011;7648;52.264;9.632;2022-09-30T05:12:40;4.50;;;4.20;;
15094;SDS011;7648;52.264;9.632;2022-09-30T05:16:43;5.83;;;5.33;;
15094;SDS011;7648;52.264;9.632;2022-09-30T05:20:47;5.20;;;4.80;;
15094;SDS011;7648;52.264;9.632;2022-09-30T05:24:50;6.03;;;5.53;;
15094;SDS011;7648;52.264;9.632;2022-09-30T05:28:53;7.07;;;6.43;;
15094;SDS011;7648;52.264;9.632;2022-09-30T05:32:55;5.43;;;5.03;;
15094;SDS011;7648;52.264;9.632;2022-09-30T05:36:57;6.03;;;5.43;;
15094;SDS011;7648;52.264;9.632;2022-09-30T05:41:04;6.40;;;6.00;;
15094;SDS011;7648;52.264;9.632;2022-09-30T05:45:09;6.67;;;5.17;;
15094;SDS011;7648;52.264;9.632;2022-09-30T05:49:11;7.00;;;6.33;;
15094;SDS011;7648;52.264;9.632;2022-09-30T05:53:13;6.87;;;6.23;;
15094;SDS011;7648;52.264;9.632;2022-09-30T05:57:15;6.43;;;5.83;;
15094;SDS011;7648;52.264;9.632;2022-09-30T06:01:18;6.07;;;5.57;;
15094;SDS011;7648;52.264;9.632;2022-09-30T06:05:20;5.70;;;5.30;;
15094;SDS011;7648;52.264;9.632;2022-09-30T06:09:22;6.67;;;5.93;;
15094;SDS011;7648;52.264;9.632;2022-09-30T06:13:25;6.37;;;5.87;;
15094;SDS011;7648;52.264;9.632;2022-09-30T06:17:28;7.07;;;5.80;;
15094;SDS011;7648;52.264;9.632;2022-09-30T06:21:30;6.00;;;5.40;;
15094;SDS011;7648;52.264;9.632;2022-09-30T06:25:32;4.73;;;4.43;;
15094;SDS011;7648;52.264;9.632;2022-09-30T06:29:34;10.63;;;8.77;;
15094;SDS011;7648;52.264;9.632;2022-09-30T06:33:38;6.90;;;6.30;;
15094;SDS011;7648;52.264;9.632;2022-09-30T06:37:43;7.83;;;7.13;;
15094;SDS011;7648;52.264;9.632;2022-09-30T06:41:45;5.27;;;4.87;;
15094;SDS011;7648;52.264;9.632;2022-09-30T06:45:58;6.60;;;5.90;;
15094;SDS011;7648;52.264;9.632;2022-09-30T06:50:01;6.30;;;5.83;;
15094;SDS011;7648;52.264;9.632;2022-09-30T06:54:04;7.40;;;6.80;;
15094;SDS011;7648;52.264;9.632;2022-09-30T06:58:07;6.87;;;6.37;;
15094;SDS011;7648;52.264;9.632;2022-09-30T07:02:15;8.37;;;7.57;;
15094;SDS011;7648;52.264;9.632;2022-09-30T07:06:18;6.90;;;6.30;;
15094;SDS011;7648;52.264;9.632;2022-09-30T07:10:20;6.33;;;5.83;;
15094;SDS011;7648;52.264;9.632;2022-09-30T07:14:22;6.00;;;5.50;;
15094;SDS011;7648;52.264;9.632;2022-09-30T07:18:24;6.70;;;6.10;;
15094;SDS011;7648;52.264;9.632;2022-09-30T07:22:29;7.50;;;6.83;;
15094;SDS011;7648;52.264;9.632;2022-09-30T07:26:31;7.07;;;6.37;;
15094;SDS011;7648;52.264;9.632;2022-09-30T07:30:33;7.20;;;6.50;;
15094;SDS011;7648;52.264;9.632;2022-09-30T07:34:35;7.53;;;6.83;;
15094;SDS011;7648;52.264;9.632;2022-09-30T07:38:39;6.70;;;6.20;;
15094;SDS011;7648;52.264;9.632;2022-09-30T07:42:42;6.80;;;6.30;;
15094;SDS011;7648;52.264;9.632;2022-09-30T07:46:44;7.03;;;6.43;;
15094;SDS011;7648;52.264;9.632;2022-09-30T07:50:47;7.33;;;6.60;;
15094;SDS011;7648;52.264;9.632;2022-09-30T07:54:50;6.93;;;6.23;;
15094;SDS011;7648;52.264;9.632;2022-09-30T07:58:52;6.63;;;6.20;;
15094;SDS011;7648;52.264;9.632;2022-09-30T08:02:55;5.87;;;5.47;;
15094;SDS011;7648;52.264;9.632;2022-09-30T08:06:58;6.43;;;5.93;;
15094;SDS011;7648;52.264;9.632;2022-09-30T08:11:03;6.43;;;5.83;;
15094;SDS011;7648;52.264;9.632;2022-09-30T08:15:06;6.40;;;5.90;;
15094;SDS011;7648;52.264;9.632;2022-09-30T08:19:12;6.73;;;6.17;;
15094;SDS011;7648;52.264;9.632;2022-09-30T08:23:16;6.10;;;5.60;;
15094;SDS011;7648;52.264;9.632;2022-09-30T08:27:19;6.77;;;6.27;;
15094;SDS011;7648;52.264;9.632;2022-09-30T08:31:22;7.63;;;6.03;;
15094;SDS011;7648;52.264;9.632;2022-09-30T08:35:24;7.07;;;6.37;;
15094;SDS011;7648;52.264;9.632;2022-09-30T08:39:26;9.23;;;6.57;;
15094;SDS011;7648;52.264;9.632;2022-09-30T08:43:30;7.60;;;6.43;;
15094;SDS011;7648;52.264;9.632;2022-09-30T08:47:42;7.33;;;6.73;;
15094;SDS011;7648;52.264;9.632;2022-09-30T08:51:51;6.50;;;5.50;;
15094;SDS011;7648;52.264;9.632;2022-09-30T08:55:55;5.70;;;5.20;;
15094;SDS011;7648;52.264;9.632;2022-09-30T09:00:03;5.50;;;5.10;;
15094;SDS011;7648;52.264;9.632;2022-09-30T09:04:10;4.50;;;4.20;;
15094;SDS011;7648;52.264;9.632;2022-09-30T09:08:15;4.83;;;4.43;;
15094;SDS011;7648;52.264;9.632;2022-09-30T09:12:26;5.10;;;4.60;;
15094;SDS011;7648;52.264;9.632;2022-09-30T09:16:38;5.13;;;4.73;;
15094;SDS011;7648;52.264;9.632;2022-09-30T09:20:48;4.60;;;4.20;;
15094;SDS011;7648;52.264;9.632;2022-09-30T09:24:54;5.13;;;4.83;;
15094;SDS011;7648;52.264;9.632;2022-09-30T09:29:00;5.83;;;4.33;;
15094;SDS011;7648;52.264;9.632;2022-09-30T09:33:13;4.23;;;3.93;;
15094;SDS011;7648;52.264;9.632;2022-09-30T09:37:21;4.47;;;4.17;;
15094;SDS011;7648;52.264;9.632;2022-09-30T09:41:45;4.40;;;4.10;;
15094;SDS011;7648;52.264;9.632;2022-09-30T09:45:55;4.37;;;4.07;;
15094;SDS011;7648;52.264;9.632;2022-09-30T09:50:10;5.00;;;4.70;;
15094;SDS011;7648;52.264;9.632;2022-09-30T09:54:18;16.23;;;8.40;;
15094;SDS011;7648;52.264;9.632;2022-09-30T09:58:22;21.80;;;10.20;;
15094;SDS011;7648;52.264;9.632;2022-09-30T10:02:25;5.97;;;5.57;;
15094;SDS011;7648;52.264;9.632;2022-09-30T10:06:30;5.30;;;4.90;;
15094;SDS011;7648;52.264;9.632;2022-09-30T10:10:45;5.13;;;4.73;;
15094;SDS011;7648;52.264;9.632;2022-09-30T10:14:50;4.50;;;4.20;;
15094;SDS011;7648;52.264;9.632;2022-09-30T10:18:57;6.23;;;4.70;;
15094;SDS011;7648;52.264;9.632;2022-09-30T10:23:02;5.30;;;4.80;;
15094;SDS011;7648;52.264;9.632;2022-09-30T10:27:18;5.23;;;4.83;;
15094;SDS011;7648;52.264;9.632;2022-09-30T10:31:28;5.33;;;4.93;;
15094;SDS011;7648;52.264;9.632;2022-09-30T10:35:33;20.40;;;18.70;;
15094;SDS011;7648;52.264;9.632;2022-09-30T10:39:37;10.10;;;9.30;;
15094;SDS011;7648;52.264;9.632;2022-09-30T10:43:42;5.90;;;5.60;;
15094;SDS011;7648;52.264;9.632;2022-09-30T10:47:46;5.67;;;5.20;;
15094;SDS011;7648;52.264;9.632;2022-09-30T10:51:50;5.50;;;5.10;;
15094;SDS011;7648;52.264;9.632;2022-09-30T10:55:54;5.07;;;4.77;;
15094;SDS011;7648;52.264;9.632;2022-09-30T10:59:57;4.80;;;4.50;;
15094;SDS011;7648;52.264;9.632;2022-09-30T11:04:03;5.13;;;4.70;;
15094;SDS011;7648;52.264;9.632;2022-09-30T11:08:12;4.73;;;4.43;;
15094;SDS011;7648;52.264;9.632;2022-09-30T11:12:22;3.70;;;3.50;;
15094;SDS011;7648;52.264;9.632;2022-09-30T11:16:32;3.77;;;3.47;;
15094;SDS011;7648;52.264;9.632;2022-09-30T11:20:44;3.63;;;3.33;;
15094;SDS011;7648;52.264;9.632;2022-09-30T11:24:52;4.80;;;4.43;;
15094;SDS011;7648;52.264;9.632;2022-09-30T11:29:02;4.30;;;4.00;;
15094;SDS011;7648;52.264;9.632;2022-09-30T11:33:18;3.93;;;3.73;;
15094;SDS011;7648;52.264;9.632;2022-09-30T11:37:34;4.07;;;3.77;;
15094;SDS011;7648;52.264;9.632;2022-09-30T11:41:50;3.60;;;3.30;;
15094;SDS011;7648;52.264;9.632;2022-09-30T11:50:44;4.50;;;4.10;;
15094;SDS011;7648;52.264;9.632;2022-09-30T11:55:00;3.73;;;3.33;;
15094;SDS011;7648;52.264;9.632;2022-09-30T11:59:13;4.27;;;3.80;;
15094;SDS011;7648;52.264;9.632;2022-09-30T12:03:22;4.17;;;3.83;;
15094;SDS011;7648;52.264;9.632;2022-09-30T12:07:33;3.50;;;3.30;;
15094;SDS011;7648;52.264;9.632;2022-09-30T12:11:40;3.80;;;3.50;;
15094;SDS011;7648;52.264;9.632;2022-09-30T12:15:47;3.43;;;3.23;;
15094;SDS011;7648;52.264;9.632;2022-09-30T12:19:52;4.47;;;3.80;;
15094;SDS011;7648;52.264;9.632;2022-09-30T12:23:58;3.77;;;3.47;;
15094;SDS011;7648;52.264;9.632;2022-09-30T12:28:09;3.13;;;2.83;;
15094;SDS011;7648;52.264;9.632;2022-09-30T12:32:53;4.23;;;3.90;;
15094;SDS011;7648;52.264;9.632;2022-09-30T12:37:22;4.10;;;3.80;;
15094;SDS011;7648;52.264;9.632;2022-09-30T12:41:41;4.47;;;4.10;;
15094;SDS011;7648;52.264;9.632;2022-09-30T12:46:01;3.90;;;3.60;;
15094;SDS011;7648;52.264;9.632;2022-09-30T12:50:12;4.17;;;3.87;;
15094;SDS011;7648;52.264;9.632;2022-09-30T12:54:18;3.67;;;3.37;;
15094;SDS011;7648;52.264;9.632;2022-09-30T12:58:26;2.70;;;2.60;;
15094;SDS011;7648;52.264;9.632;2022-09-30T13:02:34;2.27;;;2.17;;
15094;SDS011;7648;52.264;9.632;2022-09-30T13:11:45;2.33;;;2.00;;
15094;SDS011;7648;52.264;9.632;2022-09-30T13:15:48;2.43;;;2.33;;
15094;SDS011;7648;52.264;9.632;2022-09-30T13:19:51;2.03;;;1.93;;
15094;SDS011;7648;52.264;9.632;2022-09-30T13:23:55;2.00;;;1.80;;
15094;SDS011;7648;52.264;9.632;2022-09-30T13:32:37;2.43;;;2.23;;
15094;SDS011;7648;52.264;9.632;2022-09-30T13:36:55;2.97;;;2.83;;
15094;SDS011;7648;52.264;9.632;2022-09-30T13:41:01;2.00;;;1.90;;
15094;SDS011;7648;52.264;9.632;2022-09-30T13:45:10;2.37;;;2.27;;
15094;SDS011;7648;52.264;9.632;2022-09-30T13:49:16;2.60;;;2.30;;
15094;SDS011;7648;52.264;9.632;2022-09-30T13:53:26;2.40;;;2.30;;
15094;SDS011;7648;52.264;9.632;2022-09-30T13:57:36;2.13;;;2.03;;
15094;SDS011;7648;52.264;9.632;2022-09-30T14:01:52;2.37;;;2.20;;
15094;SDS011;7648;52.264;9.632;2022-09-30T14:06:12;2.30;;;2.20;;
15094;SDS011;7648;52.264;9.632;2022-09-30T14:10:37;2.13;;;2.03;;
15094;SDS011;7648;52.264;9.632;2022-09-30T14:19:29;1.87;;;1.77;;
15094;SDS011;7648;52.264;9.632;2022-09-30T14:23:45;2.43;;;2.20;;
15094;SDS011;7648;52.264;9.632;2022-09-30T14:27:59;2.70;;;2.23;;
15094;SDS011;7648;52.264;9.632;2022-09-30T14:32:09;2.20;;;2.10;;
15094;SDS011;7648;52.264;9.632;2022-09-30T14:36:15;2.17;;;2.07;;
15094;SDS011;7648;52.264;9.632;2022-09-30T14:40:22;1.80;;;1.70;;
15094;SDS011;7648;52.264;9.632;2022-09-30T14:44:26;2.13;;;2.03;;
15094;SDS011;7648;52.264;9.632;2022-09-30T14:48:33;2.30;;;2.10;;
15094;SDS011;7648;52.264;9.632;2022-09-30T14:52:43;2.77;;;2.10;;
15094;SDS011;7648;52.264;9.632;2022-09-30T14:56:47;2.10;;;2.00;;
15094;SDS011;7648;52.264;9.632;2022-09-30T15:00:55;2.07;;;1.97;;
15094;SDS011;7648;52.264;9.632;2022-09-30T15:05:05;2.07;;;1.97;;
15094;SDS011;7648;52.264;9.632;2022-09-30T15:09:16;2.70;;;2.50;;
15094;SDS011;7648;52.264;9.632;2022-09-30T15:13:23;2.37;;;2.10;;
15094;SDS011;7648;52.264;9.632;2022-09-30T15:17:28;2.13;;;1.97;;
15094;SDS011;7648;52.264;9.632;2022-09-30T15:21:35;1.90;;;1.80;;
15094;SDS011;7648;52.264;9.632;2022-09-30T15:25:39;1.60;;;1.50;;
15094;SDS011;7648;52.264;9.632;2022-09-30T15:29:52;1.93;;;1.83;;
15094;SDS011;7648;52.264;9.632;2022-09-30T15:34:02;1.97;;;1.87;;
15094;SDS011;7648;52.264;9.632;2022-09-30T15:38:06;2.00;;;1.90;;
15094;SDS011;7648;52.264;9.632;2022-09-30T15:42:10;1.90;;;1.77;;
15094;SDS011;7648;52.264;9.632;2022-09-30T15:46:15;3.20;;;2.10;;
15094;SDS011;7648;52.264;9.632;2022-09-30T15:50:36;1.93;;;1.83;;
15094;SDS011;7648;52.264;9.632;2022-09-30T15:54:40;1.97;;;1.87;;
15094;SDS011;7648;52.264;9.632;2022-09-30T15:58:47;1.60;;;1.50;;
15094;SDS011;7648;52.264;9.632;2022-09-30T16:02:55;2.30;;;2.20;;
15094;SDS011;7648;52.264;9.632;2022-09-30T16:07:16;2.53;;;2.43;;
15094;SDS011;7648;52.264;9.632;2022-09-30T16:11:19;3.60;;;2.23;;
15094;SDS011;7648;52.264;9.632;2022-09-30T16:15:26;2.20;;;2.10;;
15094;SDS011;7648;52.264;9.632;2022-09-30T16:19:29;2.23;;;2.13;;
15094;SDS011;7648;52.264;9.632;2022-09-30T16:23:33;2.43;;;2.23;;
15094;SDS011;7648;52.264;9.632;2022-09-30T16:27:36;2.10;;;2.00;;
15094;SDS011;7648;52.264;9.632;2022-09-30T16:31:40;1.93;;;1.83;;
15094;SDS011;7648;52.264;9.632;2022-09-30T16:35:42;2.40;;;2.30;;
15094;SDS011;7648;52.264;9.632;2022-09-30T16:39:46;1.60;;;1.50;;
15094;SDS011;7648;52.264;9.632;2022-09-30T16:43:49;1.77;;;1.63;;
15094;SDS011;7648;52.264;9.632;2022-09-30T16:47:52;1.73;;;1.73;;
15094;SDS011;7648;52.264;9.632;2022-09-30T16:51:56;2.53;;;2.30;;
15094;SDS011;7648;52.264;9.632;2022-09-30T16:55:58;2.93;;;2.63;;
15094;SDS011;7648;52.264;9.632;2022-09-30T17:00:00;2.87;;;2.67;;
15094;SDS011;7648;52.264;9.632;2022-09-30T17:04:04;2.87;;;2.67;;
15094;SDS011;7648;52.264;9.632;2022-09-30T17:08:08;2.03;;;1.93;;
15094;SDS011;7648;52.264;9.632;2022-09-30T17:12:12;2.10;;;2.00;;
15094;SDS011;7648;52.264;9.632;2022-09-30T17:16:14;1.77;;;1.67;;
15094;SDS011;7648;52.264;9.632;2022-09-30T17:20:18;2.10;;;2.00;;
15094;SDS011;7648;52.264;9.632;2022-09-30T17:24:20;1.63;;;1.53;;
15094;SDS011;7648;52.264;9.632;2022-09-30T17:28:22;1.90;;;1.80;;
15094;SDS011;7648;52.264;9.632;2022-09-30T17:32:24;1.90;;;1.80;;
15094;SDS011;7648;52.264;9.632;2022-09-30T17:36:27;1.70;;;1.70;;
15094;SDS011;7648;52.264;9.632;2022-09-30T17:40:30;1.50;;;1.50;;
15094;SDS011;7648;52.264;9.632;2022-09-30T17:44:49;2.00;;;1.80;;
15094;SDS011;7648;52.264;9.632;2022-09-30T17:48:53;1.77;;;1.67;;
15094;SDS011;7648;52.264;9.632;2022-09-30T17:52:57;1.47;;;1.47;;
15094;SDS011;7648;52.264;9.632;2022-09-30T17:57:01;1.43;;;1.43;;
15094;SDS011;7648;52.264;9.632;2022-09-30T18:01:04;1.80;;;1.70;;
15094;SDS011;7648;52.264;9.632;2022-09-30T18:05:07;1.57;;;1.57;;
15094;SDS011;7648;52.264;9.632;2022-09-30T18:09:10;1.40;;;1.40;;
15094;SDS011;7648;52.264;9.632;2022-09-30T18:13:12;2.40;;;2.17;;
15094;SDS011;7648;52.264;9.632;2022-09-30T18:17:14;1.63;;;1.53;;
15094;SDS011;7648;52.264;9.632;2022-09-30T18:21:16;1.67;;;1.60;;
15094;SDS011;7648;52.264;9.632;2022-09-30T18:25:19;2.17;;;2.07;;
15094;SDS011;7648;52.264;9.632;2022-09-30T18:29:22;1.90;;;1.73;;
15094;SDS011;7648;52.264;9.632;2022-09-30T18:33:24;1.53;;;1.43;;
15094;SDS011;7648;52.264;9.632;2022-09-30T18:37:27;1.30;;;1.30;;
15094;SDS011;7648;52.264;9.632;2022-09-30T18:41:30;1.03;;;1.03;;
15094;SDS011;7648;52.264;9.632;2022-09-30T18:45:33;1.73;;;1.63;;
15094;SDS011;7648;52.264;9.632;2022-09-30T18:49:37;1.60;;;1.50;;
15094;SDS011;7648;52.264;9.632;2022-09-30T18:53:39;1.77;;;1.67;;
15094;SDS011;7648;52.264;9.632;2022-09-30T18:57:42;1.50;;;1.50;;
15094;SDS011;7648;52.264;9.632;2022-09-30T19:01:47;1.87;;;1.80;;
15094;SDS011;7648;52.264;9.632;2022-09-30T19:05:49;1.93;;;1.83;;
15094;SDS011;7648;52.264;9.632;2022-09-30T19:09:51;1.80;;;1.80;;
15094;SDS011;7648;52.264;9.632;2022-09-30T19:13:54;2.27;;;1.90;;
15094;SDS011;7648;52.264;9.632;2022-09-30T19:18:00;1.90;;;1.80;;
15094;SDS011;7648;52.264;9.632;2022-09-30T19:22:02;1.97;;;1.87;;
15094;SDS011;7648;52.264;9.632;2022-09-30T19:26:04;1.63;;;1.60;;
15094;SDS011;7648;52.264;9.632;2022-09-30T19:30:09;1.70;;;1.60;;
15094;SDS011;7648;52.264;9.632;2022-09-30T19:34:13;1.70;;;1.60;;
15094;SDS011;7648;52.264;9.632;2022-09-30T19:38:15;1.70;;;1.70;;
15094;SDS011;7648;52.264;9.632;2022-09-30T19:42:17;1.80;;;1.70;;
15094;SDS011;7648;52.264;9.632;2022-09-30T19:46:21;2.27;;;2.17;;
15094;SDS011;7648;52.264;9.632;2022-09-30T19:50:24;28.63;;;17.67;;
15094;SDS011;7648;52.264;9.632;2022-09-30T19:54:26;45.03;;;34.83;;
15094;SDS011;7648;52.264;9.632;2022-09-30T19:58:28;11.30;;;10.20;;
15094;SDS011;7648;52.264;9.632;2022-09-30T20:02:33;8.47;;;7.97;;
15094;SDS011;7648;52.264;9.632;2022-09-30T20:06:35;4.47;;;4.27;;
15094;SDS011;7648;52.264;9.632;2022-09-30T20:10:37;3.57;;;3.37;;
15094;SDS011;7648;52.264;9.632;2022-09-30T20:14:39;3.20;;;3.00;;
15094;SDS011;7648;52.264;9.632;2022-09-30T20:19:00;2.60;;;2.40;;
15094;SDS011;7648;52.264;9.632;2022-09-30T20:23:02;2.70;;;2.50;;
15094;SDS011;7648;52.264;9.632;2022-09-30T20:27:04;2.83;;;2.63;;
15094;SDS011;7648;52.264;9.632;2022-09-30T20:31:06;2.80;;;2.70;;
15094;SDS011;7648;52.264;9.632;2022-09-30T20:35:11;2.50;;;2.40;;
15094;SDS011;7648;52.264;9.632;2022-09-30T20:39:13;2.37;;;2.20;;
15094;SDS011;7648;52.264;9.632;2022-09-30T20:43:15;2.50;;;2.40;;
15094;SDS011;7648;52.264;9.632;2022-09-30T20:47:17;2.40;;;2.23;;
15094;SDS011;7648;52.264;9.632;2022-09-30T20:51:21;2.77;;;2.67;;
15094;SDS011;7648;52.264;9.632;2022-09-30T20:55:23;2.57;;;2.47;;
15094;SDS011;7648;52.264;9.632;2022-09-30T20:59:25;2.27;;;2.17;;
15094;SDS011;7648;52.264;9.632;2022-09-30T21:03:27;2.23;;;2.13;;
15094;SDS011;7648;52.264;9.632;2022-09-30T21:07:33;2.90;;;2.80;;
15094;SDS011;7648;52.264;9.632;2022-09-30T21:11:35;2.47;;;2.37;;
15094;SDS011;7648;52.264;9.632;2022-09-30T21:15:37;2.50;;;2.40;;
15094;SDS011;7648;52.264;9.632;2022-09-30T21:19:39;2.60;;;2.40;;
15094;SDS011;7648;52.264;9.632;2022-09-30T21:23:44;2.03;;;1.93;;
15094;SDS011;7648;52.264;9.632;2022-09-30T21:27:46;2.20;;;2.10;;
15094;SDS011;7648;52.264;9.632;2022-09-30T21:31:49;2.00;;;1.90;;
15094;SDS011;7648;52.264;9.632;2022-09-30T21:35:56;2.17;;;2.07;;
15094;SDS011;7648;52.264;9.632;2022-09-30T21:40:01;2.17;;;2.07;;
15094;SDS011;7648;52.264;9.632;2022-09-30T21:44:04;2.17;;;2.07;;
15094;SDS011;7648;52.264;9.632;2022-09-30T21:48:06;2.20;;;2.10;;
15094;SDS011;7648;52.264;9.632;2022-09-30T21:52:10;2.33;;;2.23;;
15094;SDS011;7648;52.264;9.632;2022-09-30T21:56:14;2.00;;;1.90;;
15094;SDS011;7648;52.264;9.632;2022-09-30T22:00:16;2.60;;;2.40;;
15094;SDS011;7648;52.264;9.632;2022-09-30T22:04:18;2.07;;;1.97;;
15094;SDS011;7648;52.264;9.632;2022-09-30T22:08:20;2.20;;;2.00;;
15094;SDS011;7648;52.264;9.632;2022-09-30T22:12:24;1.70;;;1.70;;
15094;SDS011;7648;52.264;9.632;2022-09-30T22:16:26;2.13;;;2.03;;
15094;SDS011;7648;52.264;9.632;2022-09-30T22:20:30;1.70;;;1.70;;
15094;SDS011;7648;52.264;9.632;2022-09-30T22:24:31;1.47;;;1.47;;
15094;SDS011;7648;52.264;9.632;2022-09-30T22:28:37;1.80;;;1.70;;
15094;SDS011;7648;52.264;9.632;2022-09-30T22:32:40;1.83;;;1.73;;
15094;SDS011;7648;52.264;9.632;2022-09-30T22:36:42;2.37;;;1.80;;
15094;SDS011;7648;52.264;9.632;2022-09-30T22:41:03;2.07;;;1.87;;
15094;SDS011;7648;52.264;9.632;2022-09-30T22:45:07;2.67;;;1.70;;
15094;SDS011;7648;52.264;9.632;2022-09-30T22:49:09;1.93;;;1.80;;
15094;SDS011;7648;52.264;9.632;2022-09-30T22:53:11;2.17;;;1.83;;
15094;SDS011;7648;52.264;9.632;2022-09-30T22:57:13;1.93;;;1.73;;
15094;SDS011;7648;52.264;9.632;2022-09-30T23:01:17;1.60;;;1.50;;
15094;SDS011;7648;52.264;9.632;2022-09-30T23:05:19;1.40;;;1.30;;
15094;SDS011;7648;52.264;9.632;2022-09-30T23:09:21;1.50;;;1.50;;
15094;SDS011;7648;52.264;9.632;2022-09-30T23:13:27;1.57;;;1.47;;
15094;SDS011;7648;52.264;9.632;2022-09-30T23:17:31;1.60;;;1.50;;
15094;SDS011;7648;52.264;9.632;2022-09-30T23:21:34;1.73;;;1.63;;
15094;SDS011;7648;52.264;9.632;2022-09-30T23:25:36;1.70;;;1.60;;
15094;SDS011;7648;52.264;9.632;2022-09-30T23:29:38;1.80;;;1.70;;
15094;SDS011;7648;52.264;9.632;2022-09-30T23:33:44;1.73;;;1.63;;
15094;SDS011;7648;52.264;9.632;2022-09-30T23:37:48;1.93;;;1.83;;
15094;SDS011;7648;52.264;9.632;2022-09-30T23:41:51;2.93;;;2.07;;
15094;SDS011;7648;52.264;9.632;2022-09-30T23:45:53;1.80;;;1.70;;
15094;SDS011;7648;52.264;9.632;2022-09-30T23:49:56;1.50;;;1.50;;
15094;SDS011;7648;52.264;9.632;2022-09-30T23:53:58;1.63;;;1.53;;
15094;SDS011;7648;52.264;9.632;2022-09-30T23:58:01;1.60;;;1.50;;
